sensor_id;sensor_type;location;lat;lon;timestamp;P1;durP1;ratioP1;P2;durP2;ratioP2
14209;SDS011;7188;56.070;12.698;2023-02-11T00:00:33;19.33;;;4.30;;
14209;SDS011;7188;56.070;12.698;2023-02-11T00:02:59;14.90;;;3.50;;
14209;SDS011;7188;56.070;12.698;2023-02-11T00:05:25;16.10;;;3.77;;
14209;SDS011;7188;56.070;12.698;2023-02-11T00:07:50;16.27;;;3.20;;
14209;SDS011;7188;56.070;12.698;2023-02-11T00:10:16;18.17;;;3.73;;
14209;SDS011;7188;56.070;12.698;2023-02-11T00:12:41;19.43;;;2.83;;
14209;SDS011;7188;56.070;12.698;2023-02-11T00:15:07;17.53;;;3.10;;
14209;SDS011;7188;56.070;12.698;2023-02-11T00:17:33;16.60;;;4.50;;
14209;SDS011;7188;56.070;12.698;2023-02-11T00:19:59;17.23;;;3.10;;
14209;SDS011;7188;56.070;12.698;2023-02-11T00:22:25;8.87;;;2.57;;
14209;SDS011;7188;56.070;12.698;2023-02-11T00:24:50;14.70;;;3.23;;
14209;SDS011;7188;56.070;12.698;2023-02-11T00:27:16;12.73;;;2.27;;
14209;SDS011;7188;56.070;12.698;2023-02-11T00:29:41;18.27;;;2.63;;
14209;SDS011;7188;56.070;12.698;2023-02-11T00:32:08;10.63;;;2.37;;
14209;SDS011;7188;56.070;12.698;2023-02-11T00:34:34;9.67;;;2.17;;
14209;SDS011;7188;56.070;12.698;2023-02-11T00:37:01;8.53;;;3.20;;
14209;SDS011;7188;56.070;12.698;2023-02-11T00:39:27;17.77;;;2.53;;
14209;SDS011;7188;56.070;12.698;2023-02-11T00:41:52;13.07;;;3.20;;
14209;SDS011;7188;56.070;12.698;2023-02-11T00:44:18;19.83;;;2.80;;
14209;SDS011;7188;56.070;12.698;2023-02-11T00:46:43;14.80;;;3.03;;
14209;SDS011;7188;56.070;12.698;2023-02-11T00:49:09;15.27;;;2.50;;
14209;SDS011;7188;56.070;12.698;2023-02-11T00:51:35;12.53;;;2.37;;
14209;SDS011;7188;56.070;12.698;2023-02-11T00:54:01;11.40;;;3.10;;
14209;SDS011;7188;56.070;12.698;2023-02-11T00:56:26;7.77;;;2.13;;
14209;SDS011;7188;56.070;12.698;2023-02-11T00:58:52;11.97;;;1.97;;
14209;SDS011;7188;56.070;12.698;2023-02-11T01:01:18;13.23;;;2.13;;
14209;SDS011;7188;56.070;12.698;2023-02-11T01:03:44;14.03;;;2.20;;
14209;SDS011;7188;56.070;12.698;2023-02-11T01:06:09;13.77;;;2.40;;
14209;SDS011;7188;56.070;12.698;2023-02-11T01:08:37;10.33;;;2.33;;
14209;SDS011;7188;56.070;12.698;2023-02-11T01:11:04;9.13;;;2.20;;
14209;SDS011;7188;56.070;12.698;2023-02-11T01:13:32;10.33;;;2.80;;
14209;SDS011;7188;56.070;12.698;2023-02-11T01:16:01;11.60;;;2.73;;
14209;SDS011;7188;56.070;12.698;2023-02-11T01:18:28;17.10;;;2.97;;
14209;SDS011;7188;56.070;12.698;2023-02-11T01:20:54;21.73;;;3.10;;
14209;SDS011;7188;56.070;12.698;2023-02-11T01:23:20;13.17;;;2.30;;
14209;SDS011;7188;56.070;12.698;2023-02-11T01:25:46;11.27;;;2.23;;
14209;SDS011;7188;56.070;12.698;2023-02-11T01:28:16;14.70;;;2.27;;
14209;SDS011;7188;56.070;12.698;2023-02-11T01:30:49;10.63;;;2.10;;
14209;SDS011;7188;56.070;12.698;2023-02-11T01:33:15;12.67;;;2.73;;
14209;SDS011;7188;56.070;12.698;2023-02-11T01:35:41;10.23;;;2.90;;
14209;SDS011;7188;56.070;12.698;2023-02-11T01:38:08;14.33;;;2.83;;
14209;SDS011;7188;56.070;12.698;2023-02-11T01:40:47;18.50;;;2.43;;
14209;SDS011;7188;56.070;12.698;2023-02-11T01:43:14;12.90;;;2.93;;
14209;SDS011;7188;56.070;12.698;2023-02-11T01:45:47;14.77;;;2.13;;
14209;SDS011;7188;56.070;12.698;2023-02-11T01:48:20;18.60;;;2.90;;
14209;SDS011;7188;56.070;12.698;2023-02-11T01:50:59;13.30;;;3.07;;
14209;SDS011;7188;56.070;12.698;2023-02-11T01:53:33;11.93;;;2.90;;
14209;SDS011;7188;56.070;12.698;2023-02-11T01:56:19;11.83;;;2.33;;
14209;SDS011;7188;56.070;12.698;2023-02-11T01:59:06;15.97;;;2.87;;
14209;SDS011;7188;56.070;12.698;2023-02-11T02:01:37;15.93;;;2.87;;
14209;SDS011;7188;56.070;12.698;2023-02-11T02:04:08;19.27;;;2.53;;
14209;SDS011;7188;56.070;12.698;2023-02-11T02:06:39;15.80;;;3.03;;
14209;SDS011;7188;56.070;12.698;2023-02-11T02:09:11;21.37;;;3.27;;
14209;SDS011;7188;56.070;12.698;2023-02-11T02:11:45;16.90;;;2.73;;
14209;SDS011;7188;56.070;12.698;2023-02-11T02:14:12;14.10;;;3.20;;
14209;SDS011;7188;56.070;12.698;2023-02-11T02:16:38;20.70;;;2.97;;
14209;SDS011;7188;56.070;12.698;2023-02-11T02:22:07;18.07;;;2.87;;
14209;SDS011;7188;56.070;12.698;2023-02-11T02:38:59;15.90;;;3.13;;
14209;SDS011;7188;56.070;12.698;2023-02-11T02:41:32;16.40;;;3.23;;
14209;SDS011;7188;56.070;12.698;2023-02-11T02:43:59;12.30;;;2.53;;
14209;SDS011;7188;56.070;12.698;2023-02-11T02:46:29;14.53;;;3.13;;
14209;SDS011;7188;56.070;12.698;2023-02-11T02:49:00;20.30;;;3.37;;
14209;SDS011;7188;56.070;12.698;2023-02-11T02:54:37;18.73;;;3.03;;
14209;SDS011;7188;56.070;12.698;2023-02-11T03:04:51;14.97;;;2.60;;
14209;SDS011;7188;56.070;12.698;2023-02-11T03:10:14;14.93;;;2.90;;
14209;SDS011;7188;56.070;12.698;2023-02-11T03:12:45;15.93;;;2.93;;
14209;SDS011;7188;56.070;12.698;2023-02-11T03:15:12;18.23;;;3.27;;
14209;SDS011;7188;56.070;12.698;2023-02-11T03:17:40;14.67;;;2.37;;
14209;SDS011;7188;56.070;12.698;2023-02-11T03:20:09;15.73;;;3.07;;
14209;SDS011;7188;56.070;12.698;2023-02-11T03:22:39;16.33;;;3.13;;
14209;SDS011;7188;56.070;12.698;2023-02-11T03:25:10;15.30;;;2.53;;
14209;SDS011;7188;56.070;12.698;2023-02-11T03:27:52;14.07;;;2.07;;
14209;SDS011;7188;56.070;12.698;2023-02-11T03:30:36;15.63;;;3.00;;
14209;SDS011;7188;56.070;12.698;2023-02-11T03:33:29;11.53;;;2.23;;
14209;SDS011;7188;56.070;12.698;2023-02-11T03:36:02;11.87;;;2.93;;
14209;SDS011;7188;56.070;12.698;2023-02-11T03:38:33;11.00;;;1.63;;
14209;SDS011;7188;56.070;12.698;2023-02-11T03:41:04;10.60;;;2.43;;
14209;SDS011;7188;56.070;12.698;2023-02-11T03:43:36;11.10;;;2.37;;
14209;SDS011;7188;56.070;12.698;2023-02-11T03:46:06;19.13;;;2.57;;
14209;SDS011;7188;56.070;12.698;2023-02-11T03:48:41;17.60;;;2.10;;
14209;SDS011;7188;56.070;12.698;2023-02-11T03:51:11;12.27;;;2.40;;
14209;SDS011;7188;56.070;12.698;2023-02-11T03:53:38;13.57;;;3.27;;
14209;SDS011;7188;56.070;12.698;2023-02-11T03:56:07;17.93;;;2.87;;
14209;SDS011;7188;56.070;12.698;2023-02-11T03:58:37;15.77;;;2.83;;
14209;SDS011;7188;56.070;12.698;2023-02-11T04:01:02;13.10;;;2.83;;
14209;SDS011;7188;56.070;12.698;2023-02-11T04:03:29;15.90;;;3.13;;
14209;SDS011;7188;56.070;12.698;2023-02-11T04:05:56;16.13;;;2.83;;
14209;SDS011;7188;56.070;12.698;2023-02-11T04:08:22;22.03;;;3.30;;
14209;SDS011;7188;56.070;12.698;2023-02-11T04:10:48;20.07;;;2.73;;
14209;SDS011;7188;56.070;12.698;2023-02-11T04:13:13;17.17;;;3.03;;
14209;SDS011;7188;56.070;12.698;2023-02-11T04:15:39;16.33;;;1.87;;
14209;SDS011;7188;56.070;12.698;2023-02-11T04:18:04;13.23;;;2.53;;
14209;SDS011;7188;56.070;12.698;2023-02-11T04:20:30;16.73;;;2.57;;
14209;SDS011;7188;56.070;12.698;2023-02-11T04:22:56;18.90;;;3.20;;
14209;SDS011;7188;56.070;12.698;2023-02-11T04:25:21;17.27;;;2.43;;
14209;SDS011;7188;56.070;12.698;2023-02-11T04:27:47;12.00;;;2.03;;
14209;SDS011;7188;56.070;12.698;2023-02-11T04:30:13;10.60;;;2.53;;
14209;SDS011;7188;56.070;12.698;2023-02-11T04:32:38;15.27;;;3.00;;
14209;SDS011;7188;56.070;12.698;2023-02-11T04:35:04;17.43;;;2.67;;
14209;SDS011;7188;56.070;12.698;2023-02-11T04:37:30;18.10;;;2.63;;
14209;SDS011;7188;56.070;12.698;2023-02-11T04:39:56;15.90;;;2.73;;
14209;SDS011;7188;56.070;12.698;2023-02-11T04:42:22;13.90;;;2.00;;
14209;SDS011;7188;56.070;12.698;2023-02-11T04:44:47;11.87;;;2.63;;
14209;SDS011;7188;56.070;12.698;2023-02-11T04:47:13;13.57;;;2.00;;
14209;SDS011;7188;56.070;12.698;2023-02-11T04:49:39;14.43;;;2.97;;
14209;SDS011;7188;56.070;12.698;2023-02-11T04:52:05;18.53;;;3.07;;
14209;SDS011;7188;56.070;12.698;2023-02-11T04:54:31;16.77;;;2.27;;
14209;SDS011;7188;56.070;12.698;2023-02-11T04:56:57;14.90;;;2.30;;
14209;SDS011;7188;56.070;12.698;2023-02-11T04:59:23;17.27;;;2.40;;
14209;SDS011;7188;56.070;12.698;2023-02-11T05:01:50;12.70;;;2.60;;
14209;SDS011;7188;56.070;12.698;2023-02-11T05:04:15;16.63;;;2.40;;
14209;SDS011;7188;56.070;12.698;2023-02-11T05:06:41;21.03;;;3.20;;
14209;SDS011;7188;56.070;12.698;2023-02-11T05:09:08;16.07;;;2.53;;
14209;SDS011;7188;56.070;12.698;2023-02-11T05:11:38;17.70;;;3.00;;
14209;SDS011;7188;56.070;12.698;2023-02-11T05:14:04;16.97;;;3.23;;
14209;SDS011;7188;56.070;12.698;2023-02-11T05:16:31;13.37;;;2.00;;
14209;SDS011;7188;56.070;12.698;2023-02-11T05:18:56;20.73;;;3.43;;
14209;SDS011;7188;56.070;12.698;2023-02-11T05:21:22;16.50;;;2.63;;
14209;SDS011;7188;56.070;12.698;2023-02-11T05:23:48;17.27;;;2.53;;
14209;SDS011;7188;56.070;12.698;2023-02-11T05:26:14;16.77;;;3.07;;
14209;SDS011;7188;56.070;12.698;2023-02-11T05:28:40;12.40;;;2.30;;
14209;SDS011;7188;56.070;12.698;2023-02-11T05:31:05;16.03;;;2.47;;
14209;SDS011;7188;56.070;12.698;2023-02-11T05:33:31;13.80;;;2.73;;
14209;SDS011;7188;56.070;12.698;2023-02-11T05:35:58;12.77;;;2.23;;
14209;SDS011;7188;56.070;12.698;2023-02-11T05:38:27;13.60;;;2.77;;
14209;SDS011;7188;56.070;12.698;2023-02-11T05:40:54;9.77;;;2.17;;
14209;SDS011;7188;56.070;12.698;2023-02-11T05:43:20;15.00;;;1.80;;
14209;SDS011;7188;56.070;12.698;2023-02-11T05:45:46;12.00;;;2.13;;
14209;SDS011;7188;56.070;12.698;2023-02-11T05:48:12;17.27;;;2.70;;
14209;SDS011;7188;56.070;12.698;2023-02-11T05:50:37;14.63;;;2.27;;
14209;SDS011;7188;56.070;12.698;2023-02-11T05:53:03;15.17;;;2.93;;
14209;SDS011;7188;56.070;12.698;2023-02-11T05:55:29;14.90;;;2.50;;
14209;SDS011;7188;56.070;12.698;2023-02-11T05:57:55;12.43;;;1.43;;
14209;SDS011;7188;56.070;12.698;2023-02-11T06:00:22;7.57;;;2.07;;
14209;SDS011;7188;56.070;12.698;2023-02-11T06:02:47;14.00;;;2.60;;
14209;SDS011;7188;56.070;12.698;2023-02-11T06:05:13;9.33;;;2.43;;
14209;SDS011;7188;56.070;12.698;2023-02-11T06:07:39;10.17;;;2.07;;
14209;SDS011;7188;56.070;12.698;2023-02-11T06:10:04;10.57;;;1.93;;
14209;SDS011;7188;56.070;12.698;2023-02-11T06:12:30;10.57;;;1.83;;
14209;SDS011;7188;56.070;12.698;2023-02-11T06:14:56;12.90;;;2.67;;
14209;SDS011;7188;56.070;12.698;2023-02-11T06:17:22;6.30;;;1.80;;
14209;SDS011;7188;56.070;12.698;2023-02-11T06:19:49;11.17;;;1.50;;
14209;SDS011;7188;56.070;12.698;2023-02-11T06:22:15;13.73;;;1.50;;
14209;SDS011;7188;56.070;12.698;2023-02-11T06:24:41;11.57;;;1.87;;
14209;SDS011;7188;56.070;12.698;2023-02-11T06:27:07;8.47;;;1.43;;
14209;SDS011;7188;56.070;12.698;2023-02-11T06:29:33;10.83;;;1.83;;
14209;SDS011;7188;56.070;12.698;2023-02-11T06:31:58;9.17;;;1.93;;
14209;SDS011;7188;56.070;12.698;2023-02-11T06:34:24;12.63;;;2.00;;
14209;SDS011;7188;56.070;12.698;2023-02-11T06:36:50;13.63;;;2.03;;
14209;SDS011;7188;56.070;12.698;2023-02-11T06:39:15;8.97;;;1.70;;
14209;SDS011;7188;56.070;12.698;2023-02-11T06:41:41;8.47;;;1.63;;
14209;SDS011;7188;56.070;12.698;2023-02-11T06:44:06;6.87;;;1.70;;
14209;SDS011;7188;56.070;12.698;2023-02-11T06:46:32;7.97;;;1.30;;
14209;SDS011;7188;56.070;12.698;2023-02-11T06:48:58;9.73;;;2.00;;
14209;SDS011;7188;56.070;12.698;2023-02-11T06:51:23;13.37;;;1.53;;
14209;SDS011;7188;56.070;12.698;2023-02-11T06:53:49;10.63;;;1.67;;
14209;SDS011;7188;56.070;12.698;2023-02-11T06:56:16;15.20;;;1.77;;
14209;SDS011;7188;56.070;12.698;2023-02-11T06:58:43;11.87;;;1.77;;
14209;SDS011;7188;56.070;12.698;2023-02-11T07:01:11;9.97;;;1.93;;
14209;SDS011;7188;56.070;12.698;2023-02-11T07:03:40;11.93;;;2.03;;
14209;SDS011;7188;56.070;12.698;2023-02-11T07:06:11;11.23;;;1.37;;
14209;SDS011;7188;56.070;12.698;2023-02-11T07:08:41;8.80;;;1.80;;
14209;SDS011;7188;56.070;12.698;2023-02-11T07:11:14;15.70;;;1.83;;
14209;SDS011;7188;56.070;12.698;2023-02-11T07:13:48;15.80;;;2.13;;
14209;SDS011;7188;56.070;12.698;2023-02-11T07:16:15;10.63;;;1.77;;
14209;SDS011;7188;56.070;12.698;2023-02-11T07:18:43;11.10;;;2.63;;
14209;SDS011;7188;56.070;12.698;2023-02-11T07:21:10;13.97;;;2.13;;
14209;SDS011;7188;56.070;12.698;2023-02-11T07:23:37;12.80;;;2.43;;
14209;SDS011;7188;56.070;12.698;2023-02-11T07:26:05;17.03;;;2.03;;
14209;SDS011;7188;56.070;12.698;2023-02-11T07:28:33;22.00;;;3.53;;
14209;SDS011;7188;56.070;12.698;2023-02-11T07:31:04;15.03;;;2.67;;
14209;SDS011;7188;56.070;12.698;2023-02-11T07:33:34;21.20;;;2.43;;
14209;SDS011;7188;56.070;12.698;2023-02-11T07:36:00;15.07;;;2.57;;
14209;SDS011;7188;56.070;12.698;2023-02-11T07:38:27;18.10;;;3.47;;
14209;SDS011;7188;56.070;12.698;2023-02-11T07:40:52;15.30;;;2.60;;
14209;SDS011;7188;56.070;12.698;2023-02-11T07:43:18;13.13;;;2.87;;
14209;SDS011;7188;56.070;12.698;2023-02-11T07:45:44;18.27;;;3.27;;
14209;SDS011;7188;56.070;12.698;2023-02-11T07:48:09;21.03;;;4.63;;
14209;SDS011;7188;56.070;12.698;2023-02-11T07:50:36;18.23;;;4.00;;
14209;SDS011;7188;56.070;12.698;2023-02-11T07:53:02;21.90;;;3.17;;
14209;SDS011;7188;56.070;12.698;2023-02-11T07:55:27;21.77;;;3.80;;
14209;SDS011;7188;56.070;12.698;2023-02-11T07:57:53;19.47;;;3.40;;
14209;SDS011;7188;56.070;12.698;2023-02-11T08:00:19;14.73;;;3.23;;
14209;SDS011;7188;56.070;12.698;2023-02-11T08:02:44;22.60;;;4.13;;
14209;SDS011;7188;56.070;12.698;2023-02-11T08:05:10;18.37;;;3.73;;
14209;SDS011;7188;56.070;12.698;2023-02-11T08:07:35;18.50;;;4.47;;
14209;SDS011;7188;56.070;12.698;2023-02-11T08:12:47;23.30;;;4.20;;
14209;SDS011;7188;56.070;12.698;2023-02-11T08:15:13;27.37;;;4.80;;
14209;SDS011;7188;56.070;12.698;2023-02-11T08:17:39;22.80;;;3.90;;
14209;SDS011;7188;56.070;12.698;2023-02-11T08:20:04;26.90;;;4.77;;
14209;SDS011;7188;56.070;12.698;2023-02-11T08:22:31;22.37;;;4.70;;
14209;SDS011;7188;56.070;12.698;2023-02-11T08:24:58;20.10;;;4.00;;
14209;SDS011;7188;56.070;12.698;2023-02-11T08:27:24;31.97;;;5.03;;
14209;SDS011;7188;56.070;12.698;2023-02-11T08:29:51;24.23;;;4.20;;
14209;SDS011;7188;56.070;12.698;2023-02-11T08:32:17;28.20;;;5.47;;
14209;SDS011;7188;56.070;12.698;2023-02-11T08:34:43;20.87;;;4.27;;
14209;SDS011;7188;56.070;12.698;2023-02-11T08:37:08;29.57;;;4.73;;
14209;SDS011;7188;56.070;12.698;2023-02-11T08:39:34;28.70;;;5.23;;
14209;SDS011;7188;56.070;12.698;2023-02-11T08:41:59;32.87;;;5.80;;
14209;SDS011;7188;56.070;12.698;2023-02-11T08:44:25;22.27;;;4.57;;
14209;SDS011;7188;56.070;12.698;2023-02-11T08:46:51;23.10;;;3.60;;
14209;SDS011;7188;56.070;12.698;2023-02-11T08:49:17;20.13;;;5.80;;
14209;SDS011;7188;56.070;12.698;2023-02-11T08:51:43;23.47;;;6.03;;
14209;SDS011;7188;56.070;12.698;2023-02-11T08:54:10;31.47;;;6.23;;
14209;SDS011;7188;56.070;12.698;2023-02-11T08:56:37;26.73;;;4.73;;
14209;SDS011;7188;56.070;12.698;2023-02-11T08:59:03;23.87;;;4.97;;
14209;SDS011;7188;56.070;12.698;2023-02-11T09:01:30;21.83;;;3.73;;
14209;SDS011;7188;56.070;12.698;2023-02-11T09:03:57;23.67;;;4.87;;
14209;SDS011;7188;56.070;12.698;2023-02-11T09:06:23;23.77;;;4.80;;
14209;SDS011;7188;56.070;12.698;2023-02-11T09:08:51;28.35;;;5.40;;
14209;SDS011;7188;56.070;12.698;2023-02-11T09:11:20;24.30;;;5.70;;
14209;SDS011;7188;56.070;12.698;2023-02-11T09:13:51;25.07;;;4.40;;
14209;SDS011;7188;56.070;12.698;2023-02-11T09:16:21;30.00;;;5.13;;
14209;SDS011;7188;56.070;12.698;2023-02-11T09:18:49;33.03;;;6.30;;
14209;SDS011;7188;56.070;12.698;2023-02-11T09:21:15;27.30;;;5.70;;
14209;SDS011;7188;56.070;12.698;2023-02-11T09:23:42;24.87;;;5.00;;
14209;SDS011;7188;56.070;12.698;2023-02-11T09:26:16;29.97;;;6.30;;
14209;SDS011;7188;56.070;12.698;2023-02-11T09:28:46;27.47;;;4.97;;
14209;SDS011;7188;56.070;12.698;2023-02-11T09:31:23;30.70;;;6.40;;
14209;SDS011;7188;56.070;12.698;2023-02-11T09:33:51;29.33;;;5.90;;
14209;SDS011;7188;56.070;12.698;2023-02-11T09:36:25;28.33;;;6.07;;
14209;SDS011;7188;56.070;12.698;2023-02-11T09:38:53;32.53;;;6.03;;
14209;SDS011;7188;56.070;12.698;2023-02-11T09:43:48;31.60;;;5.93;;
14209;SDS011;7188;56.070;12.698;2023-02-11T09:46:17;31.90;;;6.27;;
14209;SDS011;7188;56.070;12.698;2023-02-11T09:48:46;31.37;;;5.73;;
14209;SDS011;7188;56.070;12.698;2023-02-11T09:52:00;38.03;;;7.38;;
14209;SDS011;7188;56.070;12.698;2023-02-11T09:56:54;30.33;;;5.83;;
14209;SDS011;7188;56.070;12.698;2023-02-11T09:59:20;33.03;;;6.83;;
14209;SDS011;7188;56.070;12.698;2023-02-11T10:06:52;37.70;;;7.40;;
14209;SDS011;7188;56.070;12.698;2023-02-11T10:25:20;32.33;;;6.23;;
14209;SDS011;7188;56.070;12.698;2023-02-11T10:27:49;29.23;;;6.20;;
14209;SDS011;7188;56.070;12.698;2023-02-11T10:32:45;33.37;;;6.00;;
14209;SDS011;7188;56.070;12.698;2023-02-11T10:35:22;38.63;;;7.47;;
14209;SDS011;7188;56.070;12.698;2023-02-11T10:37:48;30.77;;;6.93;;
14209;SDS011;7188;56.070;12.698;2023-02-11T10:40:15;38.80;;;7.33;;
14209;SDS011;7188;56.070;12.698;2023-02-11T10:42:53;35.40;;;6.17;;
14209;SDS011;7188;56.070;12.698;2023-02-11T10:45:27;35.23;;;6.73;;
14209;SDS011;7188;56.070;12.698;2023-02-11T10:47:54;38.83;;;8.30;;
14209;SDS011;7188;56.070;12.698;2023-02-11T10:52:50;37.67;;;7.00;;
14209;SDS011;7188;56.070;12.698;2023-02-11T10:55:17;36.57;;;7.17;;
14209;SDS011;7188;56.070;12.698;2023-02-11T11:03:14;33.70;;;7.10;;
14209;SDS011;7188;56.070;12.698;2023-02-11T11:05:50;33.13;;;6.33;;
14209;SDS011;7188;56.070;12.698;2023-02-11T11:08:19;41.93;;;7.17;;
14209;SDS011;7188;56.070;12.698;2023-02-11T11:10:46;40.63;;;7.43;;
14209;SDS011;7188;56.070;12.698;2023-02-11T11:13:36;36.03;;;7.57;;
14209;SDS011;7188;56.070;12.698;2023-02-11T11:19:14;28.27;;;7.07;;
14209;SDS011;7188;56.070;12.698;2023-02-11T11:21:43;37.20;;;7.23;;
14209;SDS011;7188;56.070;12.698;2023-02-11T11:24:21;39.17;;;8.30;;
14209;SDS011;7188;56.070;12.698;2023-02-11T11:26:58;45.10;;;8.53;;
14209;SDS011;7188;56.070;12.698;2023-02-11T11:29:38;37.67;;;8.17;;
14209;SDS011;7188;56.070;12.698;2023-02-11T11:32:29;44.43;;;8.17;;
14209;SDS011;7188;56.070;12.698;2023-02-11T11:35:00;38.73;;;8.27;;
14209;SDS011;7188;56.070;12.698;2023-02-11T11:37:31;44.97;;;7.03;;
14209;SDS011;7188;56.070;12.698;2023-02-11T11:42:35;61.17;;;8.90;;
14209;SDS011;7188;56.070;12.698;2023-02-11T11:47:51;40.57;;;7.47;;
14209;SDS011;7188;56.070;12.698;2023-02-11T11:50:25;35.33;;;6.77;;
14209;SDS011;7188;56.070;12.698;2023-02-11T11:55:59;38.87;;;7.67;;
14209;SDS011;7188;56.070;12.698;2023-02-11T11:58:55;39.50;;;7.83;;
14209;SDS011;7188;56.070;12.698;2023-02-11T12:01:30;42.87;;;7.10;;
14209;SDS011;7188;56.070;12.698;2023-02-11T12:15:10;44.20;;;8.03;;
14209;SDS011;7188;56.070;12.698;2023-02-11T12:21:00;46.33;;;7.70;;
14209;SDS011;7188;56.070;12.698;2023-02-11T12:26:18;39.23;;;7.53;;
14209;SDS011;7188;56.070;12.698;2023-02-11T12:32:04;51.20;;;10.00;;
14209;SDS011;7188;56.070;12.698;2023-02-11T12:42:35;38.47;;;8.43;;
14209;SDS011;7188;56.070;12.698;2023-02-11T13:01:52;46.53;;;7.20;;
14209;SDS011;7188;56.070;12.698;2023-02-11T13:07:13;38.57;;;8.40;;
14209;SDS011;7188;56.070;12.698;2023-02-11T13:12:53;46.73;;;7.53;;
14209;SDS011;7188;56.070;12.698;2023-02-11T13:15:40;45.87;;;8.33;;
14209;SDS011;7188;56.070;12.698;2023-02-11T13:18:46;38.57;;;7.10;;
14209;SDS011;7188;56.070;12.698;2023-02-11T13:21:29;48.23;;;9.43;;
14209;SDS011;7188;56.070;12.698;2023-02-11T13:24:21;44.77;;;9.03;;
14209;SDS011;7188;56.070;12.698;2023-02-11T13:30:19;52.00;;;9.60;;
14209;SDS011;7188;56.070;12.698;2023-02-11T13:37:59;47.00;;;7.67;;
14209;SDS011;7188;56.070;12.698;2023-02-11T13:40:40;43.13;;;8.23;;
14209;SDS011;7188;56.070;12.698;2023-02-11T13:43:20;53.40;;;10.30;;
14209;SDS011;7188;56.070;12.698;2023-02-11T13:45:48;34.67;;;7.23;;
14209;SDS011;7188;56.070;12.698;2023-02-11T13:50:48;46.53;;;7.80;;
14209;SDS011;7188;56.070;12.698;2023-02-11T13:53:17;46.03;;;9.10;;
14209;SDS011;7188;56.070;12.698;2023-02-11T13:55:44;43.60;;;8.90;;
14209;SDS011;7188;56.070;12.698;2023-02-11T13:58:16;51.17;;;8.57;;
14209;SDS011;7188;56.070;12.698;2023-02-11T14:09:36;51.30;;;8.80;;
14209;SDS011;7188;56.070;12.698;2023-02-11T14:12:29;46.23;;;8.50;;
14209;SDS011;7188;56.070;12.698;2023-02-11T14:17:49;46.67;;;7.93;;
14209;SDS011;7188;56.070;12.698;2023-02-11T14:20:32;48.27;;;8.70;;
14209;SDS011;7188;56.070;12.698;2023-02-11T14:23:05;50.07;;;8.13;;
14209;SDS011;7188;56.070;12.698;2023-02-11T14:25:44;41.10;;;8.20;;
14209;SDS011;7188;56.070;12.698;2023-02-11T14:28:25;48.77;;;8.73;;
14209;SDS011;7188;56.070;12.698;2023-02-11T14:31:02;39.73;;;8.13;;
14209;SDS011;7188;56.070;12.698;2023-02-11T14:36:01;52.63;;;9.77;;
14209;SDS011;7188;56.070;12.698;2023-02-11T14:41:26;47.27;;;8.97;;
14209;SDS011;7188;56.070;12.698;2023-02-11T14:43:57;43.73;;;9.73;;
14209;SDS011;7188;56.070;12.698;2023-02-11T14:46:25;55.47;;;11.20;;
14209;SDS011;7188;56.070;12.698;2023-02-11T14:48:57;46.80;;;8.43;;
14209;SDS011;7188;56.070;12.698;2023-02-11T14:51:29;37.43;;;8.43;;
14209;SDS011;7188;56.070;12.698;2023-02-11T14:54:01;49.27;;;8.30;;
14209;SDS011;7188;56.070;12.698;2023-02-11T14:56:40;38.70;;;8.30;;
14209;SDS011;7188;56.070;12.698;2023-02-11T14:59:14;38.80;;;8.13;;
14209;SDS011;7188;56.070;12.698;2023-02-11T15:01:43;44.30;;;9.30;;
14209;SDS011;7188;56.070;12.698;2023-02-11T15:06:51;45.57;;;7.73;;
14209;SDS011;7188;56.070;12.698;2023-02-11T15:09:22;56.53;;;9.57;;
14209;SDS011;7188;56.070;12.698;2023-02-11T15:11:56;38.90;;;8.00;;
14209;SDS011;7188;56.070;12.698;2023-02-11T15:14:25;51.17;;;9.13;;
14209;SDS011;7188;56.070;12.698;2023-02-11T15:16:58;45.60;;;7.83;;
14209;SDS011;7188;56.070;12.698;2023-02-11T15:19:38;49.10;;;9.47;;
14209;SDS011;7188;56.070;12.698;2023-02-11T15:22:16;45.90;;;9.77;;
14209;SDS011;7188;56.070;12.698;2023-02-11T15:25:00;62.60;;;9.57;;
14209;SDS011;7188;56.070;12.698;2023-02-11T15:27:40;50.77;;;9.83;;
14209;SDS011;7188;56.070;12.698;2023-02-11T15:32:46;57.30;;;9.27;;
14209;SDS011;7188;56.070;12.698;2023-02-11T15:35:38;45.57;;;9.53;;
14209;SDS011;7188;56.070;12.698;2023-02-11T15:38:05;55.33;;;8.37;;
14209;SDS011;7188;56.070;12.698;2023-02-11T15:40:32;50.40;;;9.63;;
14209;SDS011;7188;56.070;12.698;2023-02-11T15:43:04;61.93;;;10.40;;
14209;SDS011;7188;56.070;12.698;2023-02-11T15:45:38;45.60;;;9.00;;
14209;SDS011;7188;56.070;12.698;2023-02-11T15:48:30;52.97;;;8.70;;
14209;SDS011;7188;56.070;12.698;2023-02-11T15:51:02;60.60;;;10.57;;
14209;SDS011;7188;56.070;12.698;2023-02-11T15:53:37;48.80;;;8.93;;
14209;SDS011;7188;56.070;12.698;2023-02-11T15:56:20;45.03;;;8.70;;
14209;SDS011;7188;56.070;12.698;2023-02-11T15:58:57;45.13;;;9.13;;
14209;SDS011;7188;56.070;12.698;2023-02-11T16:01:33;53.57;;;10.13;;
14209;SDS011;7188;56.070;12.698;2023-02-11T16:04:01;46.97;;;9.83;;
14209;SDS011;7188;56.070;12.698;2023-02-11T16:06:35;64.57;;;11.10;;
14209;SDS011;7188;56.070;12.698;2023-02-11T16:11:36;46.93;;;9.07;;
14209;SDS011;7188;56.070;12.698;2023-02-11T16:14:20;54.13;;;9.47;;
14209;SDS011;7188;56.070;12.698;2023-02-11T16:16:47;52.50;;;9.07;;
14209;SDS011;7188;56.070;12.698;2023-02-11T16:19:19;53.83;;;10.70;;
14209;SDS011;7188;56.070;12.698;2023-02-11T16:21:46;53.03;;;10.60;;
14209;SDS011;7188;56.070;12.698;2023-02-11T16:24:32;57.50;;;9.70;;
14209;SDS011;7188;56.070;12.698;2023-02-11T16:27:02;55.30;;;9.80;;
14209;SDS011;7188;56.070;12.698;2023-02-11T16:29:31;74.70;;;11.20;;
14209;SDS011;7188;56.070;12.698;2023-02-11T16:32:04;59.50;;;10.97;;
14209;SDS011;7188;56.070;12.698;2023-02-11T16:34:39;51.67;;;10.20;;
14209;SDS011;7188;56.070;12.698;2023-02-11T16:37:05;61.37;;;11.53;;
14209;SDS011;7188;56.070;12.698;2023-02-11T16:39:31;50.93;;;9.60;;
14209;SDS011;7188;56.070;12.698;2023-02-11T16:41:57;64.47;;;9.87;;
14209;SDS011;7188;56.070;12.698;2023-02-11T16:44:22;45.30;;;10.30;;
14209;SDS011;7188;56.070;12.698;2023-02-11T16:46:48;59.87;;;11.33;;
14209;SDS011;7188;56.070;12.698;2023-02-11T16:49:16;68.13;;;9.90;;
14209;SDS011;7188;56.070;12.698;2023-02-11T16:51:46;55.23;;;9.87;;
14209;SDS011;7188;56.070;12.698;2023-02-11T16:54:18;49.80;;;10.23;;
14209;SDS011;7188;56.070;12.698;2023-02-11T16:56:44;53.60;;;10.40;;
14209;SDS011;7188;56.070;12.698;2023-02-11T16:59:10;49.83;;;9.20;;
14209;SDS011;7188;56.070;12.698;2023-02-11T17:01:36;60.27;;;9.63;;
14209;SDS011;7188;56.070;12.698;2023-02-11T17:04:03;48.17;;;9.70;;
14209;SDS011;7188;56.070;12.698;2023-02-11T17:06:31;48.60;;;8.87;;
14209;SDS011;7188;56.070;12.698;2023-02-11T17:08:58;65.70;;;11.13;;
14209;SDS011;7188;56.070;12.698;2023-02-11T17:11:23;42.87;;;9.00;;
14209;SDS011;7188;56.070;12.698;2023-02-11T17:13:49;55.20;;;11.40;;
14209;SDS011;7188;56.070;12.698;2023-02-11T17:16:16;61.87;;;9.80;;
14209;SDS011;7188;56.070;12.698;2023-02-11T17:18:45;60.20;;;9.53;;
14209;SDS011;7188;56.070;12.698;2023-02-11T17:21:11;50.73;;;10.63;;
14209;SDS011;7188;56.070;12.698;2023-02-11T17:23:37;52.73;;;10.50;;
14209;SDS011;7188;56.070;12.698;2023-02-11T17:26:03;57.97;;;11.00;;
14209;SDS011;7188;56.070;12.698;2023-02-11T17:28:29;62.67;;;9.57;;
14209;SDS011;7188;56.070;12.698;2023-02-11T17:30:56;62.87;;;12.43;;
14209;SDS011;7188;56.070;12.698;2023-02-11T17:33:22;55.80;;;12.00;;
14209;SDS011;7188;56.070;12.698;2023-02-11T17:35:47;73.90;;;12.63;;